createdAt,value
2018-05-10T00:02:16.120Z,88.60
2018-05-10T00:04:42.225Z,88.50
2018-05-10T00:07:08.314Z,88.90
2018-05-10T00:09:35.116Z,89.40
2018-05-10T00:12:01.204Z,89.40
2018-05-10T00:14:27.278Z,89.40
2018-05-10T00:16:53.362Z,89.60
2018-05-10T00:19:19.429Z,89.70
2018-05-10T00:21:45.506Z,90.00
2018-05-10T00:24:11.583Z,90.10
2018-05-10T00:26:38.417Z,90.70
2018-05-10T00:29:04.497Z,90.30
2018-05-10T00:31:30.578Z,90.30
2018-05-10T00:33:56.655Z,90.20
2018-05-10T00:36:23.378Z,90.00
2018-05-10T00:38:49.454Z,90.20
2018-05-10T00:41:15.555Z,90.20
2018-05-10T00:43:41.630Z,90.30
2018-05-10T00:46:08.454Z,90.60
2018-05-10T00:48:34.552Z,90.60
2018-05-10T00:51:00.626Z,90.60
2018-05-10T00:53:27.454Z,90.90
2018-05-10T00:55:53.522Z,90.80
2018-05-10T00:58:19.597Z,90.80
2018-05-10T01:00:45.657Z,91.00
2018-05-10T01:03:11.733Z,91.00
2018-05-10T01:05:37.798Z,91.00
2018-05-10T01:08:04.609Z,91.10
2018-05-10T01:10:30.687Z,91.10
2018-05-10T01:12:56.764Z,91.20
2018-05-10T01:15:22.849Z,91.30
2018-05-10T01:17:48.947Z,91.40
2018-05-10T01:20:15.765Z,91.20
2018-05-10T01:22:41.835Z,91.20
2018-05-10T01:25:07.906Z,91.20
2018-05-10T01:27:33.982Z,91.20
2018-05-10T01:30:00.070Z,91.30
2018-05-10T01:32:26.882Z,91.30
2018-05-10T01:35:12.413Z,91.40
2018-05-10T01:37:39.216Z,91.40
2018-05-10T01:40:05.301Z,91.40
2018-05-10T01:42:31.378Z,91.50
2018-05-10T01:44:57.458Z,91.50
2018-05-10T01:47:23.525Z,91.50
2018-05-10T01:49:49.621Z,91.50
2018-05-10T01:52:15.706Z,91.50
2018-05-10T01:54:41.821Z,91.70
2018-05-10T01:57:08.647Z,91.70
2018-05-10T01:59:34.719Z,91.70
2018-05-10T02:02:00.801Z,91.90
2018-05-10T02:04:26.866Z,91.90
2018-05-10T02:06:52.941Z,91.90
2018-05-10T02:09:19.013Z,91.90
2018-05-10T02:11:45.085Z,91.90
2018-05-10T02:14:11.166Z,91.90
2018-05-10T02:16:37.241Z,92.00
2018-05-10T02:19:03.318Z,91.90
2018-05-10T02:21:29.389Z,92.00
2018-05-10T02:23:55.456Z,92.00
2018-05-10T02:26:21.527Z,92.10
2018-05-10T02:37:52.983Z,92.10
2018-05-10T02:40:19.800Z,92.30
2018-05-10T02:42:45.879Z,92.20
2018-05-10T02:45:11.949Z,92.30
2018-05-10T02:47:38.036Z,92.30
2018-05-10T02:50:04.117Z,92.30
2018-05-10T02:52:30.966Z,92.20
2018-05-10T02:54:57.777Z,92.30
2018-05-10T02:57:23.857Z,92.30
2018-05-10T02:59:49.937Z,92.20
2018-05-10T03:02:16.000Z,92.10
2018-05-10T03:04:42.073Z,92.20
2018-05-10T03:07:08.142Z,92.10
2018-05-10T03:09:34.220Z,92.20
2018-05-10T03:12:00.292Z,92.30
2018-05-10T03:14:27.125Z,92.50
2018-05-10T03:16:53.953Z,92.50
2018-05-10T03:19:20.030Z,92.50
2018-05-10T03:21:46.112Z,92.60
2018-05-10T03:24:12.197Z,92.60
2018-05-10T03:26:39.013Z,92.90
2018-05-10T03:29:05.102Z,92.90
2018-05-10T03:31:31.181Z,92.90
2018-05-10T03:33:57.249Z,92.80
2018-05-10T03:36:23.331Z,92.80
2018-05-10T03:38:49.418Z,92.90
2018-05-10T03:41:16.258Z,92.90
2018-05-10T03:43:43.065Z,92.80
2018-05-10T03:46:09.150Z,92.80
2018-05-10T03:48:35.234Z,92.70
2018-05-10T03:51:01.326Z,92.70
2018-05-10T03:53:27.406Z,92.60
2018-05-10T03:55:54.237Z,92.60
2018-05-10T03:58:20.302Z,92.60
2018-05-10T04:00:46.391Z,92.60
2018-05-10T04:07:00.566Z,92.40
2018-05-10T04:09:45.993Z,92.40
2018-05-10T04:12:12.069Z,92.40
2018-05-10T04:14:38.890Z,92.20
2018-05-10T04:17:04.977Z,92.20
2018-05-10T04:19:31.766Z,92.20
2018-05-10T04:21:57.849Z,92.10
2018-05-10T04:24:23.924Z,91.90
2018-05-10T04:26:50.007Z,91.80
2018-05-10T04:29:16.081Z,92.10
2018-05-10T04:31:42.911Z,91.40
2018-05-10T04:34:08.995Z,91.40
2018-05-10T04:36:35.073Z,91.20
2018-05-10T04:39:01.879Z,91.00
2018-05-10T04:41:27.979Z,90.90
2018-05-10T04:43:54.056Z,90.80
2018-05-10T04:46:20.117Z,90.60
2018-05-10T04:48:46.209Z,90.40
2018-05-10T04:51:12.279Z,90.30
2018-05-10T04:53:38.375Z,90.50
2018-05-10T04:56:05.195Z,89.70
2018-05-10T04:58:31.278Z,89.70
2018-05-10T05:00:57.361Z,89.40
2018-05-10T05:03:24.241Z,88.70
2018-05-10T05:05:50.310Z,88.70
2018-05-10T05:08:16.385Z,88.30
2018-05-10T05:10:42.457Z,87.30
2018-05-10T05:13:08.537Z,82.70
2018-05-10T05:15:34.629Z,76.60
2018-05-10T05:18:01.449Z,66.90
2018-05-10T05:20:27.539Z,66.80
2018-05-10T05:22:53.618Z,62.90
2018-05-10T05:25:20.454Z,58.10
2018-05-10T05:27:46.525Z,58.10
2018-05-10T05:30:12.605Z,56.40
2018-05-10T05:32:38.681Z,55.00
2018-05-10T05:35:04.774Z,52.90
2018-05-10T05:37:31.610Z,50.10
2018-05-10T05:39:58.439Z,48.20
2018-05-10T05:42:24.514Z,48.10
2018-05-10T05:44:50.597Z,47.70
2018-05-10T05:47:17.418Z,45.50
2018-05-10T05:49:43.513Z,45.40
2018-05-10T05:52:09.589Z,44.90
2018-05-10T05:54:35.657Z,43.90
2018-05-10T05:57:01.744Z,43.10
2018-05-10T05:59:28.565Z,42.40
2018-05-10T06:01:54.667Z,42.40
2018-05-10T06:04:21.486Z,44.50
2018-05-10T06:06:47.561Z,43.90
2018-05-10T06:09:13.633Z,43.80
2018-05-10T06:11:39.714Z,43.00
2018-05-10T06:14:05.799Z,42.00
2018-05-10T06:16:31.885Z,41.00
2018-05-10T06:18:58.703Z,39.90
2018-05-10T06:21:24.788Z,39.90
2018-05-10T06:23:50.869Z,39.90
2018-05-10T06:26:19.048Z,38.80
2018-05-10T06:28:45.870Z,37.90
2018-05-10T06:31:11.941Z,37.30
2018-05-10T06:33:38.017Z,36.60
2018-05-10T06:36:04.094Z,36.20
2018-05-10T06:38:30.199Z,36.10
2018-05-10T06:40:57.012Z,35.70
2018-05-10T06:43:23.090Z,35.70
2018-05-10T06:45:49.173Z,35.70
2018-05-10T06:48:15.255Z,35.80
2018-05-10T06:50:41.395Z,35.60
2018-05-10T06:53:08.189Z,35.80
2018-05-10T06:55:35.031Z,35.70
2018-05-10T06:58:01.881Z,35.80
2018-05-10T07:09:58.246Z,36.30
2018-05-10T07:12:23.899Z,36.30
2018-05-10T07:14:49.993Z,36.60
2018-05-10T07:17:16.091Z,37.50
2018-05-10T07:19:42.922Z,38.00
2018-05-10T07:22:09.864Z,38.00
2018-05-10T07:24:35.966Z,37.90
2018-05-10T07:27:02.057Z,37.60
2018-05-10T07:29:28.153Z,37.80
2018-05-10T07:31:54.974Z,37.70
2018-05-10T07:34:21.065Z,37.70
2018-05-10T07:36:47.908Z,38.90
2018-05-10T07:39:14.755Z,38.90
2018-05-10T07:41:40.870Z,38.90
2018-05-10T07:44:06.949Z,39.30
2018-05-10T07:46:33.051Z,40.20
2018-05-10T07:48:59.137Z,40.00
2018-05-10T07:51:25.229Z,40.20
2018-05-10T07:53:51.317Z,40.30
2018-05-10T07:56:18.701Z,40.00
2018-05-10T07:58:44.782Z,39.90
2018-05-10T08:01:12.248Z,39.20
2018-05-10T08:03:39.066Z,39.70
2018-05-10T08:06:05.150Z,39.70
2018-05-10T08:08:31.213Z,39.70
2018-05-10T08:10:57.307Z,39.30
2018-05-10T08:13:23.386Z,39.40
2018-05-10T08:15:50.211Z,39.50
2018-05-10T08:18:16.293Z,39.40
2018-05-10T08:20:42.367Z,39.40
2018-05-10T08:23:08.445Z,39.40
2018-05-10T08:25:34.523Z,39.10
2018-05-10T08:28:00.609Z,39.60
2018-05-10T08:30:26.681Z,39.60
2018-05-10T08:36:04.949Z,39.20
2018-05-10T08:38:31.683Z,39.40
2018-05-10T08:40:57.790Z,39.40
2018-05-10T08:43:24.618Z,40.10
2018-05-10T08:45:51.442Z,40.20
2018-05-10T08:48:17.542Z,40.00
2018-05-10T08:50:43.625Z,39.60
2018-05-10T08:53:10.461Z,39.90
2018-05-10T08:55:37.303Z,39.20
2018-05-10T08:58:04.130Z,39.20
2018-05-10T09:00:30.228Z,39.10
2018-05-10T09:02:56.325Z,38.90
2018-05-10T09:05:22.417Z,38.50
2018-05-10T09:07:59.458Z,39.00
2018-05-10T09:10:47.084Z,38.40
2018-05-10T09:22:14.162Z,37.90
2018-05-10T09:24:40.264Z,37.90
2018-05-10T09:27:06.366Z,38.10
2018-05-10T09:29:32.451Z,39.00
2018-05-10T09:31:58.540Z,38.20
2018-05-10T09:34:24.620Z,38.10
2018-05-10T09:36:50.714Z,37.50
2018-05-10T09:39:16.882Z,37.30
2018-05-10T09:41:43.665Z,36.40
2018-05-10T09:44:10.502Z,36.40
2018-05-10T09:46:36.597Z,36.40
2018-05-10T09:49:02.693Z,37.00
2018-05-10T09:51:28.776Z,35.90
2018-05-10T09:53:54.862Z,35.60
2018-05-10T09:56:20.946Z,35.50
2018-05-10T09:58:47.772Z,35.80
2018-05-10T10:01:13.853Z,35.80
2018-05-10T10:03:39.930Z,35.50
2018-05-10T10:06:06.847Z,36.40
2018-05-10T10:08:32.849Z,35.80
2018-05-10T10:10:58.926Z,34.90
2018-05-10T10:13:25.758Z,35.10
2018-05-10T10:15:51.829Z,35.00
2018-05-10T10:18:17.930Z,34.70
2018-05-10T10:20:44.768Z,35.20
2018-05-10T10:23:11.609Z,34.70
2018-05-10T10:25:39.482Z,34.50
2018-05-10T10:28:06.305Z,34.10
2018-05-10T10:30:32.381Z,34.10
2018-05-10T10:32:58.460Z,34.10
2018-05-10T10:35:24.534Z,34.00
2018-05-10T10:37:50.615Z,32.90
2018-05-10T10:40:17.746Z,34.00
2018-05-10T10:42:43.841Z,34.00
2018-05-10T10:45:09.908Z,33.50
2018-05-10T10:47:35.987Z,33.90
2018-05-10T10:50:02.071Z,33.00
2018-05-10T10:52:28.919Z,33.30
2018-05-10T10:54:55.769Z,33.30
2018-05-10T10:57:21.866Z,33.30
2018-05-10T10:59:47.965Z,34.30
2018-05-10T11:02:14.057Z,34.90
2018-05-10T11:04:40.162Z,34.60
2018-05-10T11:07:06.980Z,34.80
2018-05-10T11:09:33.073Z,34.80
2018-05-10T11:11:59.158Z,35.00
2018-05-10T11:14:25.996Z,34.40
2018-05-10T11:16:52.842Z,34.80
2018-05-10T11:19:19.690Z,34.70
2018-05-10T11:21:46.529Z,34.90
2018-05-10T11:24:13.395Z,35.10
2018-05-10T11:26:39.496Z,35.10
2018-05-10T11:29:08.492Z,34.60
2018-05-10T11:31:35.333Z,34.10
2018-05-10T11:34:02.167Z,34.30
2018-05-10T11:36:28.265Z,34.20
2018-05-10T11:38:54.357Z,33.90
2018-05-10T11:41:20.470Z,32.20
2018-05-10T11:43:46.566Z,32.00
2018-05-10T11:46:13.909Z,31.30
2018-05-10T11:48:40.015Z,30.80
2018-05-10T11:51:06.133Z,30.90
2018-05-10T11:53:32.209Z,30.70
2018-05-10T11:55:59.038Z,31.60
2018-05-10T11:58:25.109Z,31.60
2018-05-10T12:00:51.208Z,31.50
2018-05-10T12:03:18.021Z,32.00
2018-05-10T12:05:44.094Z,32.00
2018-05-10T12:08:10.183Z,32.00
2018-05-10T12:10:36.257Z,32.10
2018-05-10T12:13:02.336Z,31.20
2018-05-10T12:15:28.400Z,31.70
2018-05-10T12:17:54.477Z,31.20
2018-05-10T12:20:20.563Z,31.20
2018-05-10T12:22:46.660Z,31.10
2018-05-10T12:25:13.473Z,30.40
2018-05-10T12:27:39.549Z,30.40
2018-05-10T12:30:05.655Z,30.10
2018-05-10T12:32:31.769Z,30.30
2018-05-10T12:34:58.614Z,30.40
2018-05-10T12:37:25.449Z,30.20
2018-05-10T12:39:52.290Z,30.10
2018-05-10T12:42:18.385Z,30.00
2018-05-10T12:44:44.482Z,30.50
2018-05-10T12:47:10.579Z,30.40
2018-05-10T12:49:37.426Z,29.80
2018-05-10T12:52:04.258Z,30.00
2018-05-10T12:54:31.091Z,29.90
2018-05-10T12:56:57.165Z,29.80
2018-05-10T12:59:23.259Z,30.30
2018-05-10T13:01:50.082Z,30.90
2018-05-10T13:04:16.166Z,30.90
2018-05-10T13:06:42.263Z,31.40
2018-05-10T13:09:08.358Z,31.10
2018-05-10T13:11:34.440Z,31.50
2018-05-10T13:14:00.521Z,32.20
2018-05-10T13:16:27.348Z,33.30
2018-05-10T13:18:53.441Z,33.30
2018-05-10T13:21:19.517Z,33.70
2018-05-10T13:23:46.343Z,34.20
2018-05-10T13:26:12.423Z,34.10
2018-05-10T13:28:38.497Z,34.70
2018-05-10T13:31:04.594Z,35.50
2018-05-10T13:33:30.665Z,36.80
2018-05-10T13:35:57.485Z,35.50
2018-05-10T13:38:23.622Z,35.50
2018-05-10T13:40:49.655Z,35.80
2018-05-10T13:43:16.472Z,37.10
2018-05-10T13:45:50.771Z,37.10
2018-05-10T13:51:36.608Z,37.40
2018-05-10T13:54:02.684Z,36.80
2018-05-10T13:56:28.773Z,37.20
2018-05-10T13:58:55.649Z,37.70
2018-05-10T14:01:21.682Z,37.60
2018-05-10T14:03:47.760Z,37.70
2018-05-10T14:06:13.841Z,37.80
2018-05-10T14:08:39.920Z,37.50
2018-05-10T14:11:06.843Z,36.00
2018-05-10T14:13:33.572Z,36.30
2018-05-10T14:15:59.655Z,36.30
2018-05-10T14:18:25.758Z,37.30
2018-05-10T14:20:52.583Z,37.10
2018-05-10T14:23:18.665Z,37.00
2018-05-10T14:25:44.742Z,37.40
2018-05-10T14:28:10.820Z,37.80
2018-05-10T14:30:36.897Z,38.00
2018-05-10T14:33:03.752Z,37.60
2018-05-10T14:35:30.555Z,37.70
2018-05-10T14:37:56.659Z,37.60
2018-05-10T14:40:38.072Z,37.50
2018-05-10T14:43:04.153Z,37.90
2018-05-10T14:45:30.229Z,37.00
2018-05-10T14:47:56.308Z,36.30
2018-05-10T14:50:22.395Z,36.10
2018-05-10T14:52:49.248Z,36.80
2018-05-10T14:55:23.907Z,37.00
2018-05-10T14:57:50.005Z,37.00
2018-05-10T15:00:16.840Z,38.30
2018-05-10T15:02:44.519Z,38.60
2018-05-10T15:05:10.629Z,38.60
2018-05-10T15:07:38.114Z,38.20
2018-05-10T15:10:04.209Z,38.10
2018-05-10T15:12:31.047Z,37.30
2018-05-10T15:14:57.899Z,36.70
2018-05-10T15:17:24.739Z,36.40
2018-05-10T15:19:51.577Z,36.00
2018-05-10T15:22:18.408Z,36.50
2018-05-10T15:24:44.515Z,36.30
2018-05-10T15:27:10.618Z,36.70
2018-05-10T15:29:36.723Z,37.40
2018-05-10T15:32:02.830Z,38.00
2018-05-10T15:34:29.669Z,38.40
2018-05-10T15:36:56.511Z,38.00
2018-05-10T15:39:23.342Z,37.60
2018-05-10T15:41:49.447Z,37.60
2018-05-10T15:44:15.543Z,37.50
2018-05-10T15:46:41.647Z,37.60
2018-05-10T15:49:07.735Z,37.50
2018-05-10T15:51:40.095Z,37.70
2018-05-10T15:54:06.189Z,37.70
2018-05-10T15:56:32.280Z,37.90
2018-05-10T15:58:59.110Z,36.90
2018-05-10T16:01:25.197Z,36.90
2018-05-10T16:03:51.289Z,35.80
2018-05-10T16:06:18.121Z,35.00
2018-05-10T16:08:44.969Z,35.80
2018-05-10T16:11:11.798Z,35.70
2018-05-10T16:13:37.897Z,35.60
2018-05-10T16:16:03.995Z,35.80
2018-05-10T16:18:52.955Z,35.80
2018-05-10T16:21:19.038Z,35.90
2018-05-10T16:23:48.874Z,36.30
2018-05-10T16:26:14.965Z,36.80
2018-05-10T16:28:41.063Z,37.40
2018-05-10T16:31:07.145Z,38.10
2018-05-10T16:33:34.034Z,39.00
2018-05-10T16:36:00.089Z,39.00
2018-05-10T16:38:26.181Z,39.50
2018-05-10T16:40:52.280Z,39.90
2018-05-10T16:43:18.377Z,40.40
2018-05-10T16:45:45.220Z,41.70
2018-05-10T16:48:12.050Z,42.00
2018-05-10T16:50:38.905Z,43.30
2018-05-10T16:53:05.742Z,43.60
2018-05-10T16:55:31.853Z,42.90
2018-05-10T16:57:57.944Z,43.50
2018-05-10T17:00:24.034Z,44.00
2018-05-10T17:02:50.869Z,45.40
2018-05-10T17:05:17.712Z,46.00
2018-05-10T17:07:44.542Z,46.90
2018-05-10T17:10:10.641Z,46.80
2018-05-10T17:12:36.729Z,47.40
2018-05-10T17:15:02.829Z,48.20
2018-05-10T17:17:29.661Z,49.40
2018-05-10T17:19:55.777Z,49.30
2018-05-10T17:22:21.882Z,49.60
2018-05-10T17:24:47.985Z,50.30
2018-05-10T17:27:14.078Z,50.90
2018-05-10T17:29:40.919Z,52.00
2018-05-10T17:32:07.765Z,52.60
2018-05-10T17:34:34.631Z,52.80
2018-05-10T17:37:02.386Z,52.80
2018-05-10T17:39:29.225Z,53.40
2018-05-10T17:41:56.058Z,54.10
2018-05-10T17:44:22.922Z,55.20
2018-05-10T17:46:49.009Z,54.60
2018-05-10T17:49:15.098Z,55.10
2018-05-10T17:51:41.201Z,55.30
2018-05-10T17:54:07.285Z,55.70
2018-05-10T17:56:33.369Z,56.10
2018-05-10T17:58:59.450Z,56.60
2018-05-10T18:01:25.527Z,57.10
2018-05-10T18:03:51.607Z,57.20
2018-05-10T18:06:18.429Z,57.70
2018-05-10T18:08:44.503Z,57.70
2018-05-10T18:11:10.576Z,58.00
2018-05-10T18:13:38.228Z,58.50
2018-05-10T18:16:04.994Z,58.80
2018-05-10T18:18:31.069Z,58.80
2018-05-10T18:20:57.164Z,58.90
2018-05-10T18:23:24.087Z,59.40
2018-05-10T18:25:50.823Z,59.50
2018-05-10T18:28:16.898Z,59.50
2018-05-10T18:30:42.985Z,59.60
2018-05-10T18:33:09.061Z,59.90
2018-05-10T18:35:35.146Z,60.50
2018-05-10T18:38:01.969Z,60.90
2018-05-10T18:40:28.042Z,60.80
2018-05-10T18:42:54.129Z,60.90
2018-05-10T18:45:20.210Z,61.20
2018-05-10T18:47:46.293Z,62.70
2018-05-10T18:50:13.112Z,62.30
2018-05-10T18:52:39.198Z,62.30
2018-05-10T18:55:05.279Z,62.70
2018-05-10T18:57:32.114Z,62.50
2018-05-10T18:59:58.177Z,62.50
2018-05-10T19:02:24.262Z,62.80
2018-05-10T19:04:50.333Z,63.00
2018-05-10T19:07:16.489Z,63.00
2018-05-10T19:09:43.253Z,63.50
2018-05-10T19:12:09.344Z,63.50
2018-05-10T19:14:35.417Z,63.60
2018-05-10T19:17:02.246Z,63.80
2018-05-10T19:19:28.322Z,63.70
2018-05-10T19:21:54.410Z,64.60
2018-05-10T19:24:21.239Z,65.70
2018-05-10T19:26:47.909Z,65.70
2018-05-10T19:29:13.989Z,65.70
2018-05-10T19:31:40.111Z,66.00
2018-05-10T19:34:06.185Z,66.40
2018-05-10T19:36:32.253Z,67.30
2018-05-10T19:38:58.342Z,68.00
2018-05-10T19:41:24.418Z,67.90
2018-05-10T19:43:50.517Z,68.20
2018-05-10T19:46:16.590Z,68.50
2018-05-10T19:48:42.672Z,69.20
2018-05-10T19:51:08.745Z,69.60
2018-05-10T19:53:35.582Z,70.50
2018-05-10T19:56:03.409Z,70.70
2018-05-10T19:58:29.494Z,70.70
2018-05-10T20:00:56.313Z,71.10
2018-05-10T20:03:22.389Z,71.10
2018-05-10T20:05:48.477Z,71.50
2018-05-10T20:08:15.311Z,71.90
2018-05-10T20:10:42.075Z,71.90
2018-05-10T20:13:08.172Z,72.30
2018-05-10T20:15:34.999Z,73.20
2018-05-10T20:18:01.086Z,72.50
2018-05-10T20:20:27.173Z,72.90
2018-05-10T20:22:53.255Z,73.00
2018-05-10T20:25:19.329Z,74.00
2018-05-10T20:27:46.154Z,74.10
2018-05-10T20:30:12.252Z,74.00
2018-05-10T20:32:38.333Z,74.40
2018-05-10T20:35:05.157Z,74.50
2018-05-10T20:37:31.222Z,74.40
2018-05-10T20:39:57.301Z,74.50
2018-05-10T20:42:23.383Z,74.70
2018-05-10T20:44:49.579Z,75.40
2018-05-10T20:47:15.558Z,75.70
2018-05-10T20:49:41.665Z,76.10
2018-05-10T20:52:07.750Z,76.30
2018-05-10T20:54:48.916Z,77.80
2018-05-10T20:57:14.992Z,77.80
2018-05-10T21:05:54.727Z,80.10
2018-05-10T21:08:31.332Z,81.20
2018-05-10T21:11:26.683Z,81.90
2018-05-10T21:13:52.756Z,82.40
2018-05-10T21:16:23.715Z,83.30
2018-05-10T21:18:55.144Z,83.70
2018-05-10T21:21:21.252Z,83.70
2018-05-10T21:23:47.328Z,84.50
2018-05-10T21:26:19.057Z,85.00
2018-05-10T21:28:45.930Z,85.80
2018-05-10T21:31:11.997Z,85.80
2018-05-10T21:33:38.080Z,86.20
2018-05-10T21:36:04.145Z,86.30
2018-05-10T21:38:30.225Z,86.30
2018-05-10T21:40:58.297Z,86.20
2018-05-10T21:43:41.878Z,86.00
2018-05-10T21:46:07.950Z,86.30
2018-05-10T21:48:34.034Z,86.50
2018-05-10T21:54:18.611Z,86.60
2018-05-10T21:56:44.700Z,86.40
2018-05-10T21:59:10.793Z,87.70
2018-05-10T22:04:42.819Z,87.80
2018-05-10T22:10:13.101Z,88.30
2018-05-10T22:12:39.198Z,88.20
2018-05-10T22:30:12.754Z,90.00
2018-05-10T22:32:38.842Z,90.00
2018-05-10T22:35:05.009Z,90.10
2018-05-10T22:37:31.639Z,90.20
2018-05-10T22:46:10.452Z,90.30
2018-05-10T22:48:36.555Z,90.30
2018-05-10T22:51:02.644Z,90.40
2018-05-10T22:53:46.975Z,90.40
2018-05-10T22:56:42.470Z,90.30
2018-05-10T22:59:08.536Z,90.40
2018-05-10T23:05:01.535Z,90.10
2018-05-10T23:07:27.626Z,90.40
2018-05-10T23:09:53.716Z,90.60
2018-05-10T23:12:19.814Z,90.70
2018-05-10T23:14:45.905Z,91.00
2018-05-10T23:20:42.645Z,91.10
2018-05-10T23:23:08.782Z,91.10
2018-05-10T23:28:56.477Z,91.30
2018-05-10T23:31:22.556Z,91.30
2018-05-10T23:33:58.993Z,91.30
2018-05-10T23:36:25.073Z,91.20
2018-05-10T23:38:51.912Z,91.10
2018-05-10T23:41:18.007Z,91.10
2018-05-10T23:43:44.101Z,91.10
2018-05-10T23:46:10.205Z,91.10
2018-05-10T23:51:38.089Z,91.00
2018-05-10T23:54:04.928Z,91.00
2018-05-10T23:56:38.586Z,91.00
2018-05-10T23:59:04.679Z,91.00
